Sunteți pe pagina 1din 1

SVMI - SVMG pg 1

Cpt walter F/O DEP time (sched/act) 1730z


ARR time (sched/act) 1818z

vroute Flight Progress Card Payload


Zero fuel weight
lbs
lbs
Fuel on board lbs
Callsign YV3317 From SVMI To SVMG Take-off weight lbs
Altitude FL210 Aircraft B734/wilc Reg #
Departure Weather Forecast avg wind 0/0

SVMI 171600Z 09003KT 9999 SCT016 27/21 Q1012 Final fuel


Fuel used
Route
Total block time
OSMAR2 OSMAR W19 CHALO VALLE DCT
Route Details:
Clearance
Position MagH Dist Time
ATIS SID Climb Fuel Rem
Coordinates FIR RDist Winds
QNH Squawk Dep freq
SVMI 086˚
Instructions
N1036.1 W06659.5 SVZM 182 0/0
Taxi via Rwy
OSMAR 087˚ 27
Enroute N1043.9 W06633.6 155 0/0
DALSI 087˚ 13
N1047.6 W06620.6 142 0/0
DOSRA 104˚ 23
Approach N1053.9 W06558.1 119 0/0
TORTU 103˚ 39
STAR Rwy QNH N1053.7 W06518.7 80 0/0
Landing CHALO 101˚ 40
N1054.3 W06438.4 40 0/0
ATIS Wind @ Vref Flaps
VALLE 105˚ 15
Tower freq Ground freq
N1055.1 W06423.1 25 0/0
Taxi via Gate
SVMG ---˚ 25
Arrival & Alternates N1054.8 W06358.0 0 0/0

SVMG Del Caribe Intl Gen Sant (elev 74 ft)


METAR: SVMG 171600Z /////KT 9999 FEW010
31/23 Q1015 NOSIG
TAF: TAF SVMG 171600Z 1718/1818 07019G14KT
9999 SCT016 TX33/19Z TN25/09Z
BECMG 1718/1722 07015G12KT FEW020

SVMI Simon Bolivar Intl [  179 nm]


SVMI 171600Z 09003KT 9999 SCT016 27/21 Q1012
Route: SARNI A561 CBC W18 DALSI DCT

SVBM Barquisimeto Intl [  322 nm]


SVBM 171500Z 11012KT 9999 FEW016 29/16 Q1018
Route: SARNI A561 CBC A552 PBL W9 MULCA W24 BRM

TNCC Hato [  303 nm]


TNCC 171554Z AUTO 11016G27KT 9999 BKN021 30/22
Q1015 NOSIG
Route: SIRAS A563 BONAX UA563 PJG

This Flight Progress Card was printed using vroute.info .